createdAt,value
2017-08-22T00:00:53.969Z,81.70
2017-08-22T00:03:27.352Z,81.00
2017-08-22T00:05:55.105Z,80.60
2017-08-22T00:08:22.754Z,80.50
2017-08-22T00:10:50.528Z,80.80
2017-08-22T00:13:18.274Z,79.90
2017-08-22T00:15:46.019Z,79.80
2017-08-22T00:18:13.699Z,79.90
2017-08-22T00:20:41.438Z,80.20
2017-08-22T00:23:09.191Z,80.80
2017-08-22T00:25:36.846Z,81.30
2017-08-22T00:28:04.606Z,80.80
2017-08-22T00:30:32.404Z,80.40
2017-08-22T00:33:00.083Z,80.20
2017-08-22T00:35:27.851Z,80.10
2017-08-22T00:37:55.513Z,80.30
2017-08-22T00:40:23.275Z,80.20
2017-08-22T00:42:50.927Z,80.70
2017-08-22T00:45:18.590Z,80.10
2017-08-22T00:47:46.343Z,80.10
2017-08-22T00:50:14.066Z,80.50
2017-08-22T00:52:41.827Z,80.20
2017-08-22T00:55:09.490Z,80.10
2017-08-22T00:57:37.289Z,80.00
2017-08-22T01:00:04.977Z,79.80
2017-08-22T01:02:32.629Z,80.10
2017-08-22T01:05:00.388Z,80.40
2017-08-22T01:07:28.085Z,80.40
2017-08-22T01:09:55.851Z,80.40
2017-08-22T01:12:23.610Z,79.90
2017-08-22T01:14:51.311Z,79.80
2017-08-22T01:17:19.079Z,80.00
2017-08-22T01:19:46.790Z,80.90
2017-08-22T01:22:14.508Z,80.30
2017-08-22T01:24:42.315Z,80.80
2017-08-22T01:27:10.008Z,80.00
2017-08-22T01:29:37.844Z,81.00
2017-08-22T01:32:05.546Z,80.70
2017-08-22T01:34:33.256Z,80.30
2017-08-22T01:37:01.075Z,80.70
2017-08-22T01:39:28.774Z,81.70
2017-08-22T01:41:56.581Z,81.30
2017-08-22T01:44:24.254Z,81.10
2017-08-22T01:46:51.903Z,80.60
2017-08-22T01:49:19.684Z,81.30
2017-08-22T01:51:47.339Z,81.50
2017-08-22T01:54:15.101Z,81.10
2017-08-22T01:56:42.752Z,80.80
2017-08-22T01:59:10.407Z,80.50
2017-08-22T02:01:38.175Z,80.20
2017-08-22T02:04:05.823Z,80.00
2017-08-22T02:06:33.591Z,80.40
2017-08-22T02:09:01.262Z,80.40
2017-08-22T02:11:28.923Z,80.80
2017-08-22T02:13:56.683Z,80.80
2017-08-22T02:16:24.367Z,80.90
2017-08-22T02:18:52.016Z,80.70
2017-08-22T02:21:19.787Z,80.80
2017-08-22T02:23:47.438Z,80.90
2017-08-22T02:26:15.093Z,81.10
2017-08-22T02:28:42.843Z,80.90
2017-08-22T02:31:10.487Z,81.00
2017-08-22T02:33:38.147Z,81.20
2017-08-22T02:36:05.891Z,80.90
2017-08-22T02:38:33.540Z,81.10
2017-08-22T02:41:01.287Z,80.90
2017-08-22T02:43:29.031Z,81.20
2017-08-22T02:45:56.677Z,80.80
2017-08-22T02:48:24.454Z,80.70
2017-08-22T02:50:52.120Z,81.20
2017-08-22T02:53:19.876Z,81.30
2017-08-22T02:55:47.533Z,80.90
2017-08-22T02:58:15.238Z,81.10
2017-08-22T03:00:42.976Z,81.00
2017-08-22T03:03:10.656Z,81.40
2017-08-22T03:05:38.408Z,81.50
2017-08-22T03:08:06.051Z,81.80
2017-08-22T03:10:33.690Z,81.90
2017-08-22T03:13:01.457Z,81.80
2017-08-22T03:15:29.113Z,81.60
2017-08-22T03:17:56.775Z,81.70
2017-08-22T03:20:24.524Z,82.20
2017-08-22T03:22:52.285Z,82.30
2017-08-22T03:25:19.941Z,82.30
2017-08-22T03:27:47.587Z,82.40
2017-08-22T03:30:15.348Z,82.20
2017-08-22T03:32:42.998Z,82.30
2017-08-22T03:35:10.743Z,82.60
2017-08-22T03:37:38.534Z,82.60
2017-08-22T03:40:06.188Z,82.70
2017-08-22T03:42:33.835Z,83.00
2017-08-22T03:45:01.596Z,82.30
2017-08-22T03:47:29.256Z,81.90
2017-08-22T03:49:56.967Z,82.00
2017-08-22T03:52:24.720Z,82.20
2017-08-22T03:54:52.471Z,82.80
2017-08-22T03:57:20.217Z,83.10
2017-08-22T03:59:47.875Z,82.50
2017-08-22T04:02:15.645Z,82.50
2017-08-22T04:04:43.300Z,82.90
2017-08-22T04:07:10.947Z,83.00
2017-08-22T04:09:38.707Z,82.40
2017-08-22T04:12:06.368Z,82.60
2017-08-22T04:14:34.046Z,82.80
2017-08-22T04:17:01.844Z,82.50
2017-08-22T04:19:29.490Z,83.00
2017-08-22T04:21:57.144Z,82.90
2017-08-22T04:24:24.907Z,83.20
2017-08-22T04:26:52.559Z,83.00
2017-08-22T04:29:20.211Z,83.00
2017-08-22T04:31:47.967Z,83.50
2017-08-22T04:34:15.620Z,83.30
2017-08-22T04:36:43.271Z,83.30
2017-08-22T04:39:11.026Z,84.30
2017-08-22T04:41:38.671Z,84.40
2017-08-22T04:44:06.421Z,83.40
2017-08-22T04:46:34.066Z,83.30
2017-08-22T04:49:01.812Z,82.90
2017-08-22T04:51:29.463Z,82.60
2017-08-22T04:53:57.220Z,82.90
2017-08-22T04:56:24.881Z,83.40
2017-08-22T04:58:52.543Z,83.70
2017-08-22T05:01:20.307Z,83.70
2017-08-22T05:03:47.979Z,84.00
2017-08-22T05:06:15.646Z,83.80
2017-08-22T05:08:43.398Z,84.00
2017-08-22T05:11:11.050Z,83.20
2017-08-22T05:13:38.704Z,83.60
2017-08-22T05:16:06.446Z,83.90
2017-08-22T05:18:34.095Z,83.40
2017-08-22T05:21:01.839Z,83.80
2017-08-22T05:23:29.626Z,83.70
2017-08-22T05:25:57.276Z,83.80
2017-08-22T05:28:25.034Z,84.10
2017-08-22T05:30:52.771Z,84.50
2017-08-22T05:33:20.430Z,84.60
2017-08-22T05:35:48.175Z,84.40
2017-08-22T05:38:15.949Z,84.80
2017-08-22T05:40:43.595Z,85.20
2017-08-22T05:43:11.251Z,85.60
2017-08-22T05:45:39.015Z,85.40
2017-08-22T05:48:06.785Z,86.00
2017-08-22T05:50:34.456Z,86.50
2017-08-22T05:53:02.106Z,86.60
2017-08-22T05:55:29.851Z,86.80
2017-08-22T05:57:57.503Z,85.80
2017-08-22T06:00:25.255Z,84.80
2017-08-22T06:02:52.919Z,85.30
2017-08-22T06:05:20.591Z,85.60
2017-08-22T06:07:48.346Z,85.50
2017-08-22T06:10:15.999Z,86.00
2017-08-22T06:12:43.752Z,85.40
2017-08-22T06:15:11.437Z,84.50
2017-08-22T06:17:39.208Z,83.80
2017-08-22T06:20:06.858Z,82.60
2017-08-22T06:22:34.505Z,82.00
2017-08-22T06:25:02.258Z,81.90
2017-08-22T06:27:29.917Z,80.60
2017-08-22T06:29:57.671Z,80.30
2017-08-22T06:32:25.326Z,78.90
2017-08-22T06:34:52.976Z,78.50
2017-08-22T06:37:20.723Z,77.80
2017-08-22T06:39:48.414Z,77.60
2017-08-22T06:42:16.083Z,77.20
2017-08-22T06:44:43.833Z,77.70
2017-08-22T06:47:11.487Z,77.60
2017-08-22T06:49:39.231Z,77.10
2017-08-22T06:52:06.889Z,77.90
2017-08-22T06:54:34.645Z,78.20
2017-08-22T06:57:02.304Z,77.50
2017-08-22T06:59:30.519Z,76.70
2017-08-22T07:01:58.267Z,76.00
2017-08-22T07:04:26.036Z,75.20
2017-08-22T07:06:54.031Z,74.90
2017-08-22T07:09:21.675Z,74.20
2017-08-22T07:11:49.450Z,74.60
2017-08-22T07:14:17.210Z,74.40
2017-08-22T07:16:44.856Z,73.50
2017-08-22T07:19:12.511Z,74.40
2017-08-22T07:21:40.271Z,74.80
2017-08-22T07:24:07.934Z,74.00
2017-08-22T07:26:35.592Z,74.10
2017-08-22T07:29:03.351Z,73.50
2017-08-22T07:31:31.003Z,74.60
2017-08-22T07:33:58.656Z,73.40
2017-08-22T07:36:26.419Z,72.90
2017-08-22T07:38:54.075Z,71.40
2017-08-22T07:41:21.727Z,72.00
2017-08-22T07:43:49.479Z,71.40
2017-08-22T07:46:17.122Z,72.90
2017-08-22T07:48:44.875Z,72.30
2017-08-22T07:51:12.541Z,72.80
2017-08-22T07:53:40.210Z,73.40
2017-08-22T07:56:07.956Z,73.30
2017-08-22T07:58:35.606Z,73.10
2017-08-22T08:01:03.375Z,72.30
2017-08-22T08:03:31.067Z,72.50
2017-08-22T08:05:58.750Z,70.90
2017-08-22T08:08:26.516Z,68.40
2017-08-22T08:10:54.283Z,66.40
2017-08-22T08:13:21.959Z,68.70
2017-08-22T08:15:49.710Z,69.20
2017-08-22T08:18:17.398Z,68.10
2017-08-22T08:20:45.056Z,68.10
2017-08-22T08:23:12.815Z,65.60
2017-08-22T08:25:40.546Z,64.60
2017-08-22T08:28:08.198Z,64.00
2017-08-22T08:30:35.943Z,62.80
2017-08-22T08:33:03.599Z,61.30
2017-08-22T08:35:31.413Z,61.30
2017-08-22T08:37:59.168Z,60.20
2017-08-22T08:40:26.930Z,59.10
2017-08-22T08:42:54.581Z,59.30
2017-08-22T08:45:22.240Z,59.20
2017-08-22T08:47:49.990Z,58.60
2017-08-22T08:50:17.652Z,57.90
2017-08-22T08:52:45.344Z,59.50
2017-08-22T08:55:13.103Z,61.10
2017-08-22T08:57:40.755Z,61.20
2017-08-22T09:00:08.470Z,61.40
2017-08-22T09:02:36.231Z,62.00
2017-08-22T09:05:03.930Z,58.70
2017-08-22T09:07:31.585Z,58.70
2017-08-22T09:09:59.361Z,57.10
2017-08-22T09:12:27.022Z,56.40
2017-08-22T09:14:54.671Z,55.90
2017-08-22T09:17:22.427Z,56.70
2017-08-22T09:19:50.083Z,54.20
2017-08-22T09:22:17.843Z,56.20
2017-08-22T09:24:45.488Z,57.70
2017-08-22T09:27:13.141Z,56.30
2017-08-22T09:29:40.886Z,56.30
2017-08-22T09:32:08.675Z,53.80
2017-08-22T09:34:36.332Z,54.10
2017-08-22T09:37:03.990Z,52.20
2017-08-22T09:39:31.807Z,54.00
2017-08-22T09:41:59.546Z,53.40
2017-08-22T09:44:27.195Z,55.60
2017-08-22T09:46:54.943Z,54.80
2017-08-22T09:49:22.596Z,54.90
2017-08-22T09:51:50.255Z,51.90
2017-08-22T09:54:18.003Z,52.00
2017-08-22T09:56:45.660Z,50.30
2017-08-22T09:59:13.420Z,52.50
2017-08-22T10:01:41.172Z,51.10
2017-08-22T10:04:08.836Z,52.20
2017-08-22T10:06:36.593Z,51.80
2017-08-22T10:09:04.346Z,50.60
2017-08-22T10:11:32.092Z,50.30
2017-08-22T10:13:59.737Z,50.90
2017-08-22T10:16:27.503Z,52.80
2017-08-22T10:18:55.155Z,53.00
2017-08-22T10:21:22.816Z,52.50
2017-08-22T10:23:50.571Z,50.90
2017-08-22T10:26:18.220Z,51.10
2017-08-22T10:28:45.955Z,53.00
2017-08-22T10:31:13.739Z,50.80
2017-08-22T10:33:41.391Z,48.20
2017-08-22T10:36:09.035Z,48.90
2017-08-22T10:38:36.791Z,48.30
2017-08-22T10:41:04.445Z,48.70
2017-08-22T10:43:32.099Z,49.10
2017-08-22T10:45:59.859Z,48.10
2017-08-22T10:48:27.524Z,48.40
2017-08-22T10:50:55.210Z,50.00
2017-08-22T10:53:22.959Z,49.70
2017-08-22T10:55:50.627Z,50.80
2017-08-22T10:58:18.276Z,49.80
2017-08-22T11:00:46.022Z,48.00
2017-08-22T11:03:13.699Z,49.50
2017-08-22T11:05:41.347Z,48.50
2017-08-22T11:08:09.090Z,47.90
2017-08-22T11:10:36.849Z,48.80
2017-08-22T11:13:04.591Z,46.90
2017-08-22T11:15:32.251Z,45.20
2017-08-22T11:17:59.912Z,44.80
2017-08-22T11:20:27.671Z,45.90
2017-08-22T11:22:55.432Z,46.50
2017-08-22T11:25:23.089Z,46.60
2017-08-22T11:27:50.745Z,46.60
2017-08-22T11:30:18.483Z,45.20
2017-08-22T11:32:46.177Z,44.80
2017-08-22T11:35:13.936Z,45.00
2017-08-22T11:37:41.590Z,42.30
2017-08-22T11:40:09.247Z,42.90
2017-08-22T11:42:36.995Z,42.00
2017-08-22T11:45:04.651Z,42.80
2017-08-22T11:47:32.326Z,41.90
2017-08-22T11:50:00.079Z,41.20
2017-08-22T11:52:27.767Z,41.90
2017-08-22T11:54:55.419Z,46.80
2017-08-22T11:57:23.188Z,44.00
2017-08-22T11:59:50.836Z,42.20
2017-08-22T12:02:18.510Z,43.60
2017-08-22T12:04:46.280Z,43.30
2017-08-22T12:07:13.939Z,42.40
2017-08-22T12:09:41.594Z,43.00
2017-08-22T12:12:09.356Z,41.00
2017-08-22T12:14:37.141Z,42.90
2017-08-22T12:17:04.856Z,41.40
2017-08-22T12:19:32.547Z,40.50
2017-08-22T12:22:00.329Z,41.30
2017-08-22T12:24:28.031Z,42.50
2017-08-22T12:26:55.786Z,41.40
2017-08-22T12:29:54.223Z,42.00
2017-08-22T12:32:21.987Z,42.80
2017-08-22T12:34:49.640Z,42.60
2017-08-22T12:37:17.290Z,41.70
2017-08-22T12:39:45.028Z,42.80
2017-08-22T12:42:12.683Z,42.30
2017-08-22T12:44:40.427Z,41.70
2017-08-22T12:47:08.079Z,43.10
2017-08-22T12:49:35.828Z,42.00
2017-08-22T12:52:03.488Z,42.80
2017-08-22T12:54:31.248Z,41.00
2017-08-22T12:56:58.900Z,42.90
2017-08-22T12:59:26.659Z,42.80
2017-08-22T13:01:54.308Z,43.10
2017-08-22T13:04:21.959Z,42.70
2017-08-22T13:06:49.715Z,41.00
2017-08-22T13:09:17.393Z,41.40
2017-08-22T13:11:45.047Z,41.10
2017-08-22T13:14:12.815Z,41.40
2017-08-22T13:16:40.480Z,41.20
2017-08-22T13:19:08.236Z,40.90
2017-08-22T13:21:35.895Z,40.60
2017-08-22T13:24:03.589Z,40.70
2017-08-22T13:26:31.356Z,41.10
2017-08-22T13:28:59.003Z,41.90
2017-08-22T13:31:26.646Z,40.00
2017-08-22T13:33:54.399Z,38.20
2017-08-22T13:36:22.093Z,38.30
2017-08-22T13:38:49.836Z,40.00
2017-08-22T13:41:18.247Z,38.50
2017-08-22T13:43:46.021Z,38.50
2017-08-22T13:46:13.682Z,39.10
2017-08-22T13:48:41.342Z,38.70
2017-08-22T13:51:09.089Z,39.10
2017-08-22T13:53:36.770Z,38.50
2017-08-22T13:56:04.507Z,39.00
2017-08-22T13:58:32.169Z,39.30
2017-08-22T14:00:59.858Z,41.60
2017-08-22T14:03:27.632Z,38.50
2017-08-22T14:05:55.291Z,38.70
2017-08-22T14:08:22.948Z,36.90
2017-08-22T14:10:50.720Z,37.20
2017-08-22T14:13:18.378Z,37.40
2017-08-22T14:15:46.038Z,37.00
2017-08-22T14:18:13.820Z,37.80
2017-08-22T14:20:41.570Z,37.90
2017-08-22T14:23:10.089Z,37.80
2017-08-22T14:25:37.739Z,37.60
2017-08-22T14:28:05.395Z,37.40
2017-08-22T14:30:33.140Z,38.50
2017-08-22T14:33:00.792Z,38.00
2017-08-22T14:35:28.548Z,37.30
2017-08-22T14:37:56.288Z,37.90
2017-08-22T14:40:24.076Z,38.70
2017-08-22T14:42:51.727Z,39.60
2017-08-22T14:45:20.139Z,39.30
2017-08-22T14:47:47.894Z,39.20
2017-08-22T14:50:15.548Z,38.90
2017-08-22T14:52:43.199Z,37.70
2017-08-22T14:55:10.944Z,37.70
2017-08-22T14:57:38.591Z,36.00
2017-08-22T15:00:06.335Z,36.50
2017-08-22T15:02:34.098Z,36.90
2017-08-22T15:05:01.750Z,36.70
2017-08-22T15:07:29.496Z,36.20
2017-08-22T15:09:57.258Z,36.50
2017-08-22T15:12:24.907Z,35.80
2017-08-22T15:14:52.555Z,37.10
2017-08-22T15:17:20.301Z,39.00
2017-08-22T15:19:48.730Z,39.60
2017-08-22T15:22:16.482Z,39.60
2017-08-22T15:24:44.238Z,39.60
2017-08-22T15:27:11.906Z,39.90
2017-08-22T15:29:39.554Z,39.90
2017-08-22T15:32:07.306Z,39.00
2017-08-22T15:34:34.954Z,40.00
2017-08-22T15:37:02.619Z,39.80
2017-08-22T15:39:30.367Z,39.10
2017-08-22T15:41:58.014Z,37.80
2017-08-22T15:44:25.664Z,36.10
2017-08-22T15:46:53.463Z,35.50
2017-08-22T15:49:21.106Z,35.00
2017-08-22T15:51:48.871Z,35.00
2017-08-22T15:54:16.624Z,35.70
2017-08-22T15:56:44.283Z,37.50
2017-08-22T15:59:11.950Z,37.90
2017-08-22T16:01:39.703Z,38.70
2017-08-22T16:04:07.355Z,39.60
2017-08-22T16:06:35.012Z,40.20
2017-08-22T16:09:03.625Z,41.80
2017-08-22T16:11:31.283Z,41.70
2017-08-22T16:13:59.038Z,42.50
2017-08-22T16:16:26.685Z,42.60
2017-08-22T16:18:54.351Z,41.30
2017-08-22T16:21:22.094Z,41.30
2017-08-22T16:23:49.866Z,41.00
2017-08-22T16:26:18.280Z,40.70
2017-08-22T16:28:45.939Z,40.70
2017-08-22T16:31:13.699Z,41.70
2017-08-22T16:33:41.363Z,41.70
2017-08-22T16:36:09.124Z,41.80
2017-08-22T16:38:36.784Z,42.20
2017-08-22T16:41:04.429Z,41.40
2017-08-22T16:43:32.179Z,41.90
2017-08-22T16:45:59.827Z,42.00
2017-08-22T16:48:28.339Z,42.50
2017-08-22T16:50:56.036Z,42.50
2017-08-22T16:53:23.841Z,42.80
2017-08-22T16:55:51.533Z,43.10
2017-08-22T16:58:19.178Z,43.90
2017-08-22T17:00:46.927Z,43.60
2017-08-22T17:03:14.692Z,44.30
2017-08-22T17:05:42.347Z,44.50
2017-08-22T17:08:10.002Z,44.50
2017-08-22T17:10:37.760Z,44.20
2017-08-22T17:13:05.428Z,44.70
2017-08-22T17:15:33.092Z,43.90
2017-08-22T17:18:00.849Z,44.30
2017-08-22T17:20:28.500Z,44.50
2017-08-22T17:22:56.155Z,46.10
2017-08-22T17:25:23.905Z,47.40
2017-08-22T17:27:51.650Z,48.00
2017-08-22T17:30:19.435Z,48.70
2017-08-22T17:32:47.851Z,48.60
2017-08-22T17:35:15.506Z,48.60
2017-08-22T17:37:43.252Z,49.20
2017-08-22T17:40:10.908Z,49.30
2017-08-22T17:42:38.652Z,49.30
2017-08-22T17:45:07.067Z,49.90
2017-08-22T17:47:34.826Z,49.90
2017-08-22T17:50:02.480Z,50.60
2017-08-22T17:52:30.140Z,50.60
2017-08-22T17:54:57.886Z,51.40
2017-08-22T17:57:25.540Z,50.90
2017-08-22T17:59:53.293Z,51.40
2017-08-22T18:02:20.951Z,51.50
2017-08-22T18:04:48.737Z,52.10
2017-08-22T18:07:16.422Z,53.90
2017-08-22T18:09:44.167Z,55.50
2017-08-22T18:12:11.916Z,56.00
2017-08-22T18:14:39.574Z,56.90
2017-08-22T18:17:07.335Z,58.70
2017-08-22T18:19:34.986Z,59.20
2017-08-22T18:22:02.635Z,59.40
2017-08-22T18:24:30.399Z,59.70
2017-08-22T18:26:58.047Z,59.60
2017-08-22T18:29:25.699Z,60.00
2017-08-22T18:31:53.441Z,60.00
2017-08-22T18:34:21.101Z,60.30
2017-08-22T18:36:48.855Z,60.40
2017-08-22T18:39:16.507Z,60.70
2017-08-22T18:41:44.155Z,61.00
2017-08-22T18:44:11.910Z,61.80
2017-08-22T18:46:39.559Z,62.50
2017-08-22T18:49:07.213Z,61.70
2017-08-22T18:51:34.972Z,61.90
2017-08-22T18:54:02.620Z,62.60
2017-08-22T18:56:30.392Z,63.20
2017-08-22T18:58:58.052Z,63.70
2017-08-22T19:01:25.702Z,63.90
2017-08-22T19:03:53.470Z,64.20
2017-08-22T19:06:21.129Z,65.70
2017-08-22T19:08:48.794Z,65.60
2017-08-22T19:11:16.541Z,65.60
2017-08-22T19:13:44.304Z,65.50
2017-08-22T19:16:12.059Z,66.20
2017-08-22T19:18:39.706Z,65.40
2017-08-22T19:21:08.122Z,65.40
2017-08-22T19:23:35.864Z,65.30
2017-08-22T19:26:03.635Z,67.10
2017-08-22T19:28:31.296Z,67.20
2017-08-22T19:30:58.949Z,67.70
2017-08-22T19:33:26.706Z,69.20
2017-08-22T19:35:54.356Z,69.70
2017-08-22T19:38:22.011Z,69.60
2017-08-22T19:40:49.767Z,68.70
2017-08-22T19:43:18.195Z,68.40
2017-08-22T19:45:45.847Z,68.30
2017-08-22T19:48:13.591Z,68.20
2017-08-22T19:50:41.245Z,69.00
2017-08-22T19:53:09.060Z,69.60
2017-08-22T19:55:36.710Z,69.90
2017-08-22T19:58:04.365Z,69.80
2017-08-22T20:00:32.131Z,69.10
2017-08-22T20:02:59.785Z,69.00
2017-08-22T20:05:27.547Z,69.40
2017-08-22T20:07:55.207Z,70.20
2017-08-22T20:10:22.975Z,70.80
2017-08-22T20:12:50.627Z,72.00
2017-08-22T20:15:18.298Z,72.10
2017-08-22T20:17:46.063Z,72.60
2017-08-22T20:20:13.726Z,73.00
2017-08-22T20:22:41.483Z,72.40
2017-08-22T20:25:09.144Z,71.70
2017-08-22T20:27:36.795Z,71.10
2017-08-22T20:30:04.563Z,71.00
2017-08-22T20:32:32.214Z,70.50
2017-08-22T20:34:59.864Z,71.50
2017-08-22T20:37:27.623Z,71.20
2017-08-22T20:39:55.411Z,71.80
2017-08-22T20:42:23.065Z,72.10
2017-08-22T20:44:50.721Z,72.20
2017-08-22T20:47:18.486Z,72.00
2017-08-22T20:49:46.143Z,72.00
2017-08-22T20:52:13.800Z,72.00
2017-08-22T20:54:41.559Z,72.30
2017-08-22T20:57:09.208Z,72.40
2017-08-22T20:59:36.855Z,72.80
2017-08-22T21:02:04.594Z,72.90
2017-08-22T21:04:32.237Z,73.20
2017-08-22T21:06:59.997Z,73.30
2017-08-22T21:09:27.643Z,73.30
2017-08-22T21:11:55.287Z,72.90
2017-08-22T21:14:23.056Z,72.60
2017-08-22T21:16:50.704Z,72.60
2017-08-22T21:19:18.452Z,72.80
2017-08-22T21:21:46.113Z,73.10
2017-08-22T21:24:13.891Z,73.30
2017-08-22T21:26:41.535Z,73.30
2017-08-22T21:29:09.179Z,73.10
2017-08-22T21:31:36.938Z,73.50
2017-08-22T21:34:04.682Z,73.30
2017-08-22T21:36:32.330Z,73.50
2017-08-22T21:39:00.083Z,73.50
2017-08-22T21:41:27.728Z,73.80
2017-08-22T21:43:56.155Z,74.20
2017-08-22T21:46:23.903Z,74.20
2017-08-22T21:48:51.559Z,74.70
2017-08-22T21:51:19.311Z,74.80
2017-08-22T21:53:47.086Z,75.00
2017-08-22T21:56:14.826Z,74.70
2017-08-22T21:58:43.250Z,74.90
2017-08-22T22:01:11.015Z,74.90
2017-08-22T22:03:38.690Z,74.90
2017-08-22T22:06:06.342Z,75.00
2017-08-22T22:08:34.093Z,76.20
2017-08-22T22:11:01.745Z,76.70
2017-08-22T22:13:29.491Z,77.30
2017-08-22T22:15:57.143Z,77.40
2017-08-22T22:18:24.904Z,77.30
2017-08-22T22:20:52.652Z,76.50
2017-08-22T22:23:20.300Z,76.20
2017-08-22T22:25:48.060Z,75.80
2017-08-22T22:28:15.712Z,75.90
2017-08-22T22:30:43.371Z,75.80
2017-08-22T22:33:11.136Z,76.20
2017-08-22T22:35:38.786Z,76.60
2017-08-22T22:38:06.447Z,77.10
2017-08-22T22:40:34.192Z,77.70
2017-08-22T22:43:01.947Z,77.00
2017-08-22T22:45:29.607Z,76.90
2017-08-22T22:47:57.375Z,77.10
2017-08-22T22:50:25.027Z,76.80
2017-08-22T22:52:52.677Z,77.60
2017-08-22T22:55:20.427Z,77.50
2017-08-22T22:57:48.080Z,77.80
2017-08-22T23:00:15.730Z,78.40
2017-08-22T23:02:43.511Z,77.70
2017-08-22T23:05:11.160Z,77.60
2017-08-22T23:07:38.809Z,78.30
2017-08-22T23:10:06.578Z,78.50
2017-08-22T23:12:34.234Z,78.60
2017-08-22T23:15:01.883Z,78.10
2017-08-22T23:17:29.662Z,78.90
2017-08-22T23:19:57.306Z,78.80
2017-08-22T23:22:24.959Z,79.50
2017-08-22T23:24:52.720Z,78.70
2017-08-22T23:27:20.394Z,78.30
2017-08-22T23:29:48.042Z,78.10
2017-08-22T23:32:15.799Z,78.70
2017-08-22T23:34:43.442Z,78.50
2017-08-22T23:37:11.095Z,78.00
2017-08-22T23:39:38.852Z,77.50
2017-08-22T23:42:06.511Z,77.70
2017-08-22T23:44:34.168Z,78.00
2017-08-22T23:47:01.923Z,78.20
2017-08-22T23:49:29.575Z,78.50
2017-08-22T23:51:57.230Z,78.30
2017-08-22T23:54:24.987Z,78.60
2017-08-22T23:56:52.631Z,78.00
2017-08-22T23:59:20.278Z,78.20
